sensor_id;sensor_type;location;lat;lon;timestamp;P1;durP1;ratioP1;P2;durP2;ratioP2
56541;SDS011;42438;53.174;6.730;2023-05-25T00:01:01;11.23;;;4.85;;
56541;SDS011;42438;53.174;6.730;2023-05-25T00:03:31;11.07;;;5.22;;
56541;SDS011;42438;53.174;6.730;2023-05-25T00:06:02;10.40;;;5.00;;
56541;SDS011;42438;53.174;6.730;2023-05-25T00:08:34;13.15;;;5.10;;
56541;SDS011;42438;53.174;6.730;2023-05-25T00:11:05;10.10;;;4.53;;
56541;SDS011;42438;53.174;6.730;2023-05-25T00:13:35;9.32;;;4.70;;
56541;SDS011;42438;53.174;6.730;2023-05-25T00:16:06;10.15;;;5.05;;
56541;SDS011;42438;53.174;6.730;2023-05-25T00:18:37;18.38;;;6.22;;
56541;SDS011;42438;53.174;6.730;2023-05-25T00:21:08;12.38;;;4.90;;
56541;SDS011;42438;53.174;6.730;2023-05-25T00:23:39;12.73;;;4.85;;
56541;SDS011;42438;53.174;6.730;2023-05-25T00:26:10;12.38;;;5.18;;
56541;SDS011;42438;53.174;6.730;2023-05-25T00:28:41;11.13;;;5.03;;
56541;SDS011;42438;53.174;6.730;2023-05-25T00:31:12;13.65;;;4.80;;
56541;SDS011;42438;53.174;6.730;2023-05-25T00:33:42;13.90;;;4.85;;
56541;SDS011;42438;53.174;6.730;2023-05-25T00:36:13;11.70;;;4.90;;
56541;SDS011;42438;53.174;6.730;2023-05-25T00:38:44;10.30;;;5.35;;
56541;SDS011;42438;53.174;6.730;2023-05-25T00:41:15;13.00;;;5.30;;
56541;SDS011;42438;53.174;6.730;2023-05-25T00:43:47;14.48;;;5.10;;
56541;SDS011;42438;53.174;6.730;2023-05-25T00:46:17;12.95;;;5.63;;
56541;SDS011;42438;53.174;6.730;2023-05-25T00:48:50;10.15;;;5.40;;
56541;SDS011;42438;53.174;6.730;2023-05-25T00:51:23;13.82;;;5.60;;
56541;SDS011;42438;53.174;6.730;2023-05-25T00:53:55;12.60;;;5.53;;
56541;SDS011;42438;53.174;6.730;2023-05-25T00:56:28;13.10;;;5.18;;
56541;SDS011;42438;53.174;6.730;2023-05-25T00:59:03;16.45;;;5.93;;
56541;SDS011;42438;53.174;6.730;2023-05-25T01:01:36;11.30;;;5.07;;
56541;SDS011;42438;53.174;6.730;2023-05-25T01:04:09;13.30;;;4.70;;
56541;SDS011;42438;53.174;6.730;2023-05-25T01:06:45;9.75;;;4.95;;
56541;SDS011;42438;53.174;6.730;2023-05-25T01:09:18;11.10;;;4.93;;
56541;SDS011;42438;53.174;6.730;2023-05-25T01:11:51;9.25;;;4.43;;
56541;SDS011;42438;53.174;6.730;2023-05-25T01:14:22;9.13;;;4.43;;
56541;SDS011;42438;53.174;6.730;2023-05-25T01:16:54;12.15;;;4.38;;
56541;SDS011;42438;53.174;6.730;2023-05-25T01:19:25;11.07;;;5.30;;
56541;SDS011;42438;53.174;6.730;2023-05-25T01:25:13;14.35;;;5.78;;
56541;SDS011;42438;53.174;6.730;2023-05-25T01:27:56;12.25;;;5.13;;
56541;SDS011;42438;53.174;6.730;2023-05-25T01:30:46;12.67;;;5.40;;
56541;SDS011;42438;53.174;6.730;2023-05-25T01:33:18;12.25;;;5.72;;
56541;SDS011;42438;53.174;6.730;2023-05-25T01:35:50;13.65;;;5.70;;
56541;SDS011;42438;53.174;6.730;2023-05-25T01:38:21;10.80;;;5.50;;
56541;SDS011;42438;53.174;6.730;2023-05-25T01:40:52;10.13;;;4.80;;
56541;SDS011;42438;53.174;6.730;2023-05-25T01:43:23;8.68;;;4.50;;
56541;SDS011;42438;53.174;6.730;2023-05-25T01:45:56;8.38;;;3.80;;
56541;SDS011;42438;53.174;6.730;2023-05-25T01:51:20;7.10;;;4.28;;
56541;SDS011;42438;53.174;6.730;2023-05-25T01:54:06;9.50;;;4.90;;
56541;SDS011;42438;53.174;6.730;2023-05-25T01:56:43;9.95;;;4.65;;
56541;SDS011;42438;53.174;6.730;2023-05-25T01:59:18;14.00;;;4.88;;
56541;SDS011;42438;53.174;6.730;2023-05-25T02:01:50;11.88;;;5.15;;
56541;SDS011;42438;53.174;6.730;2023-05-25T02:04:22;11.30;;;5.75;;
56541;SDS011;42438;53.174;6.730;2023-05-25T02:06:53;12.50;;;5.65;;
56541;SDS011;42438;53.174;6.730;2023-05-25T02:09:24;11.57;;;5.15;;
56541;SDS011;42438;53.174;6.730;2023-05-25T02:11:55;10.82;;;5.28;;
56541;SDS011;42438;53.174;6.730;2023-05-25T02:14:25;11.35;;;5.90;;
56541;SDS011;42438;53.174;6.730;2023-05-25T02:16:56;11.68;;;5.43;;
56541;SDS011;42438;53.174;6.730;2023-05-25T02:19:31;7.80;;;4.82;;
56541;SDS011;42438;53.174;6.730;2023-05-25T02:22:01;9.70;;;5.45;;
56541;SDS011;42438;53.174;6.730;2023-05-25T02:24:32;10.52;;;5.45;;
56541;SDS011;42438;53.174;6.730;2023-05-25T02:27:04;18.50;;;5.45;;
56541;SDS011;42438;53.174;6.730;2023-05-25T02:29:35;10.48;;;5.57;;
56541;SDS011;42438;53.174;6.730;2023-05-25T02:32:06;11.00;;;5.93;;
56541;SDS011;42438;53.174;6.730;2023-05-25T02:34:37;11.18;;;5.22;;
56541;SDS011;42438;53.174;6.730;2023-05-25T02:37:07;13.05;;;5.50;;
56541;SDS011;42438;53.174;6.730;2023-05-25T02:39:38;13.02;;;5.85;;
56541;SDS011;42438;53.174;6.730;2023-05-25T02:42:09;12.13;;;5.50;;
56541;SDS011;42438;53.174;6.730;2023-05-25T02:44:41;11.85;;;5.30;;
56541;SDS011;42438;53.174;6.730;2023-05-25T02:47:17;9.23;;;4.68;;
56541;SDS011;42438;53.174;6.730;2023-05-25T02:49:48;13.40;;;5.18;;
56541;SDS011;42438;53.174;6.730;2023-05-25T02:52:18;15.95;;;6.07;;
56541;SDS011;42438;53.174;6.730;2023-05-25T02:54:50;13.48;;;5.25;;
56541;SDS011;42438;53.174;6.730;2023-05-25T02:57:20;11.20;;;5.13;;
56541;SDS011;42438;53.174;6.730;2023-05-25T02:59:52;14.48;;;5.55;;
56541;SDS011;42438;53.174;6.730;2023-05-25T03:02:22;12.45;;;5.55;;
56541;SDS011;42438;53.174;6.730;2023-05-25T03:04:54;12.57;;;5.55;;
56541;SDS011;42438;53.174;6.730;2023-05-25T03:07:24;12.88;;;5.22;;
56541;SDS011;42438;53.174;6.730;2023-05-25T03:09:55;11.95;;;5.97;;
56541;SDS011;42438;53.174;6.730;2023-05-25T03:12:27;12.32;;;5.32;;
56541;SDS011;42438;53.174;6.730;2023-05-25T03:14:57;11.57;;;5.40;;
56541;SDS011;42438;53.174;6.730;2023-05-25T03:17:28;9.27;;;4.35;;
56541;SDS011;42438;53.174;6.730;2023-05-25T03:19:59;9.55;;;3.92;;
56541;SDS011;42438;53.174;6.730;2023-05-25T03:22:29;11.77;;;4.30;;
56541;SDS011;42438;53.174;6.730;2023-05-25T03:25:00;10.07;;;5.40;;
56541;SDS011;42438;53.174;6.730;2023-05-25T03:27:31;8.93;;;4.45;;
56541;SDS011;42438;53.174;6.730;2023-05-25T03:30:02;13.07;;;5.32;;
56541;SDS011;42438;53.174;6.730;2023-05-25T03:32:33;12.05;;;5.35;;
56541;SDS011;42438;53.174;6.730;2023-05-25T03:35:05;10.10;;;4.45;;
56541;SDS011;42438;53.174;6.730;2023-05-25T03:37:36;14.95;;;5.40;;
56541;SDS011;42438;53.174;6.730;2023-05-25T03:40:06;13.43;;;5.10;;
56541;SDS011;42438;53.174;6.730;2023-05-25T03:42:38;15.88;;;6.07;;
56541;SDS011;42438;53.174;6.730;2023-05-25T03:45:09;13.40;;;6.68;;
56541;SDS011;42438;53.174;6.730;2023-05-25T03:47:40;10.48;;;5.28;;
56541;SDS011;42438;53.174;6.730;2023-05-25T03:50:11;13.85;;;5.95;;
56541;SDS011;42438;53.174;6.730;2023-05-25T03:52:42;14.80;;;6.65;;
56541;SDS011;42438;53.174;6.730;2023-05-25T03:55:12;11.23;;;6.05;;
56541;SDS011;42438;53.174;6.730;2023-05-25T04:00:16;11.25;;;4.63;;
56541;SDS011;42438;53.174;6.730;2023-05-25T04:02:47;15.73;;;6.13;;
56541;SDS011;42438;53.174;6.730;2023-05-25T04:05:18;19.30;;;6.53;;
56541;SDS011;42438;53.174;6.730;2023-05-25T04:07:48;17.75;;;6.15;;
56541;SDS011;42438;53.174;6.730;2023-05-25T04:10:19;15.10;;;6.55;;
56541;SDS011;42438;53.174;6.730;2023-05-25T04:12:50;12.85;;;6.03;;
56541;SDS011;42438;53.174;6.730;2023-05-25T04:15:21;10.98;;;5.78;;
56541;SDS011;42438;53.174;6.730;2023-05-25T04:17:52;12.13;;;5.40;;
56541;SDS011;42438;53.174;6.730;2023-05-25T04:20:23;12.82;;;5.55;;
56541;SDS011;42438;53.174;6.730;2023-05-25T04:22:55;17.92;;;5.75;;
56541;SDS011;42438;53.174;6.730;2023-05-25T04:25:25;11.07;;;5.35;;
56541;SDS011;42438;53.174;6.730;2023-05-25T04:27:56;8.65;;;4.25;;
56541;SDS011;42438;53.174;6.730;2023-05-25T04:30:27;9.32;;;4.43;;
56541;SDS011;42438;53.174;6.730;2023-05-25T04:32:58;12.13;;;5.35;;
56541;SDS011;42438;53.174;6.730;2023-05-25T04:35:31;17.55;;;6.30;;
56541;SDS011;42438;53.174;6.730;2023-05-25T04:38:02;17.67;;;7.07;;
56541;SDS011;42438;53.174;6.730;2023-05-25T04:40:33;16.20;;;6.40;;
56541;SDS011;42438;53.174;6.730;2023-05-25T04:43:04;14.70;;;6.22;;
56541;SDS011;42438;53.174;6.730;2023-05-25T04:45:35;16.67;;;6.20;;
56541;SDS011;42438;53.174;6.730;2023-05-25T04:48:06;16.48;;;6.70;;
56541;SDS011;42438;53.174;6.730;2023-05-25T04:50:36;13.88;;;6.00;;
56541;SDS011;42438;53.174;6.730;2023-05-25T04:53:09;14.23;;;6.72;;
56541;SDS011;42438;53.174;6.730;2023-05-25T04:55:40;12.65;;;5.82;;
56541;SDS011;42438;53.174;6.730;2023-05-25T04:58:10;12.73;;;5.93;;
56541;SDS011;42438;53.174;6.730;2023-05-25T05:00:42;13.95;;;6.57;;
56541;SDS011;42438;53.174;6.730;2023-05-25T05:03:12;18.73;;;6.68;;
56541;SDS011;42438;53.174;6.730;2023-05-25T05:05:43;15.95;;;6.57;;
56541;SDS011;42438;53.174;6.730;2023-05-25T05:08:14;15.60;;;6.25;;
56541;SDS011;42438;53.174;6.730;2023-05-25T05:10:45;18.58;;;6.13;;
56541;SDS011;42438;53.174;6.730;2023-05-25T05:13:15;12.65;;;6.30;;
56541;SDS011;42438;53.174;6.730;2023-05-25T05:15:46;16.17;;;7.25;;
56541;SDS011;42438;53.174;6.730;2023-05-25T05:18:17;12.80;;;6.05;;
56541;SDS011;42438;53.174;6.730;2023-05-25T05:20:47;18.65;;;6.78;;
56541;SDS011;42438;53.174;6.730;2023-05-25T05:23:18;16.60;;;6.93;;
56541;SDS011;42438;53.174;6.730;2023-05-25T05:25:49;10.15;;;5.13;;
56541;SDS011;42438;53.174;6.730;2023-05-25T05:28:20;16.75;;;6.13;;
56541;SDS011;42438;53.174;6.730;2023-05-25T05:30:50;15.68;;;6.00;;
56541;SDS011;42438;53.174;6.730;2023-05-25T05:33:21;13.32;;;5.97;;
56541;SDS011;42438;53.174;6.730;2023-05-25T05:38:26;15.00;;;5.70;;
56541;SDS011;42438;53.174;6.730;2023-05-25T05:40:57;15.70;;;5.40;;
56541;SDS011;42438;53.174;6.730;2023-05-25T05:43:27;16.45;;;5.20;;
56541;SDS011;42438;53.174;6.730;2023-05-25T05:45:58;11.88;;;5.50;;
56541;SDS011;42438;53.174;6.730;2023-05-25T05:48:28;12.73;;;5.65;;
56541;SDS011;42438;53.174;6.730;2023-05-25T05:50:59;12.20;;;5.13;;
56541;SDS011;42438;53.174;6.730;2023-05-25T05:53:30;14.27;;;6.00;;
56541;SDS011;42438;53.174;6.730;2023-05-25T05:56:02;16.35;;;5.38;;
56541;SDS011;42438;53.174;6.730;2023-05-25T05:58:32;11.43;;;5.13;;
56541;SDS011;42438;53.174;6.730;2023-05-25T06:01:03;15.23;;;5.15;;
56541;SDS011;42438;53.174;6.730;2023-05-25T06:03:35;8.60;;;5.00;;
56541;SDS011;42438;53.174;6.730;2023-05-25T06:06:07;14.27;;;5.03;;
56541;SDS011;42438;53.174;6.730;2023-05-25T06:08:37;13.50;;;4.30;;
56541;SDS011;42438;53.174;6.730;2023-05-25T06:11:10;12.40;;;4.03;;
56541;SDS011;42438;53.174;6.730;2023-05-25T06:13:40;14.00;;;4.53;;
56541;SDS011;42438;53.174;6.730;2023-05-25T06:16:11;13.07;;;4.20;;
56541;SDS011;42438;53.174;6.730;2023-05-25T06:18:41;9.82;;;4.22;;
56541;SDS011;42438;53.174;6.730;2023-05-25T06:21:12;11.25;;;3.28;;
56541;SDS011;42438;53.174;6.730;2023-05-25T06:23:43;11.75;;;4.50;;
56541;SDS011;42438;53.174;6.730;2023-05-25T06:26:14;15.80;;;4.45;;
56541;SDS011;42438;53.174;6.730;2023-05-25T06:28:44;15.10;;;4.40;;
56541;SDS011;42438;53.174;6.730;2023-05-25T06:31:16;12.52;;;3.92;;
56541;SDS011;42438;53.174;6.730;2023-05-25T06:33:47;13.73;;;3.83;;
56541;SDS011;42438;53.174;6.730;2023-05-25T06:36:18;13.68;;;4.72;;
56541;SDS011;42438;53.174;6.730;2023-05-25T06:38:49;14.55;;;4.18;;
56541;SDS011;42438;53.174;6.730;2023-05-25T06:41:19;12.85;;;3.65;;
56541;SDS011;42438;53.174;6.730;2023-05-25T06:43:50;18.38;;;5.03;;
56541;SDS011;42438;53.174;6.730;2023-05-25T06:46:21;13.20;;;3.85;;
56541;SDS011;42438;53.174;6.730;2023-05-25T06:48:51;11.15;;;4.18;;
56541;SDS011;42438;53.174;6.730;2023-05-25T06:51:22;12.98;;;3.92;;
56541;SDS011;42438;53.174;6.730;2023-05-25T06:53:54;17.50;;;4.43;;
56541;SDS011;42438;53.174;6.730;2023-05-25T06:56:25;15.13;;;4.20;;
56541;SDS011;42438;53.174;6.730;2023-05-25T06:58:57;17.42;;;4.43;;
56541;SDS011;42438;53.174;6.730;2023-05-25T07:01:27;16.85;;;5.03;;
56541;SDS011;42438;53.174;6.730;2023-05-25T07:03:58;20.17;;;5.38;;
56541;SDS011;42438;53.174;6.730;2023-05-25T07:06:28;12.43;;;4.35;;
56541;SDS011;42438;53.174;6.730;2023-05-25T07:08:59;15.65;;;4.18;;
56541;SDS011;42438;53.174;6.730;2023-05-25T07:11:30;14.23;;;4.50;;
56541;SDS011;42438;53.174;6.730;2023-05-25T07:14:00;18.85;;;4.20;;
56541;SDS011;42438;53.174;6.730;2023-05-25T07:16:31;15.82;;;4.10;;
56541;SDS011;42438;53.174;6.730;2023-05-25T07:19:02;16.27;;;4.97;;
56541;SDS011;42438;53.174;6.730;2023-05-25T07:21:32;19.77;;;4.97;;
56541;SDS011;42438;53.174;6.730;2023-05-25T07:24:03;18.85;;;3.67;;
56541;SDS011;42438;53.174;6.730;2023-05-25T07:26:34;17.33;;;3.83;;
56541;SDS011;42438;53.174;6.730;2023-05-25T07:29:06;16.77;;;4.15;;
56541;SDS011;42438;53.174;6.730;2023-05-25T07:31:36;17.80;;;4.22;;
56541;SDS011;42438;53.174;6.730;2023-05-25T07:34:07;16.08;;;3.70;;
56541;SDS011;42438;53.174;6.730;2023-05-25T07:36:38;16.83;;;4.25;;
56541;SDS011;42438;53.174;6.730;2023-05-25T07:39:08;11.30;;;4.00;;
56541;SDS011;42438;53.174;6.730;2023-05-25T07:41:40;17.33;;;4.32;;
56541;SDS011;42438;53.174;6.730;2023-05-25T07:44:11;15.65;;;4.35;;
56541;SDS011;42438;53.174;6.730;2023-05-25T07:46:41;17.60;;;4.32;;
56541;SDS011;42438;53.174;6.730;2023-05-25T07:49:12;15.82;;;4.00;;
56541;SDS011;42438;53.174;6.730;2023-05-25T07:51:45;15.90;;;4.60;;
56541;SDS011;42438;53.174;6.730;2023-05-25T07:54:16;16.42;;;3.60;;
56541;SDS011;42438;53.174;6.730;2023-05-25T07:56:46;18.90;;;4.75;;
56541;SDS011;42438;53.174;6.730;2023-05-25T07:59:17;17.05;;;4.43;;
56541;SDS011;42438;53.174;6.730;2023-05-25T08:01:47;18.65;;;3.95;;
56541;SDS011;42438;53.174;6.730;2023-05-25T08:04:18;18.08;;;4.60;;
56541;SDS011;42438;53.174;6.730;2023-05-25T08:06:49;14.70;;;4.22;;
56541;SDS011;42438;53.174;6.730;2023-05-25T08:09:19;19.33;;;3.95;;
56541;SDS011;42438;53.174;6.730;2023-05-25T08:11:50;22.23;;;4.53;;
56541;SDS011;42438;53.174;6.730;2023-05-25T08:14:21;18.48;;;3.85;;
56541;SDS011;42438;53.174;6.730;2023-05-25T08:16:52;18.38;;;4.25;;
56541;SDS011;42438;53.174;6.730;2023-05-25T08:19:23;20.08;;;4.85;;
56541;SDS011;42438;53.174;6.730;2023-05-25T08:21:54;14.25;;;3.88;;
56541;SDS011;42438;53.174;6.730;2023-05-25T08:24:25;15.93;;;3.90;;
56541;SDS011;42438;53.174;6.730;2023-05-25T08:26:55;16.67;;;3.90;;
56541;SDS011;42438;53.174;6.730;2023-05-25T08:29:26;18.52;;;4.13;;
56541;SDS011;42438;53.174;6.730;2023-05-25T08:31:57;18.80;;;3.85;;
56541;SDS011;42438;53.174;6.730;2023-05-25T08:34:27;10.68;;;3.83;;
56541;SDS011;42438;53.174;6.730;2023-05-25T08:36:58;15.63;;;3.78;;
56541;SDS011;42438;53.174;6.730;2023-05-25T08:39:29;13.18;;;3.40;;
56541;SDS011;42438;53.174;6.730;2023-05-25T08:42:00;15.77;;;4.13;;
56541;SDS011;42438;53.174;6.730;2023-05-25T08:44:31;13.90;;;3.28;;
56541;SDS011;42438;53.174;6.730;2023-05-25T08:47:05;14.85;;;3.42;;
56541;SDS011;42438;53.174;6.730;2023-05-25T08:49:39;13.10;;;3.63;;
56541;SDS011;42438;53.174;6.730;2023-05-25T08:52:12;17.52;;;4.20;;
56541;SDS011;42438;53.174;6.730;2023-05-25T08:54:43;16.67;;;3.78;;
56541;SDS011;42438;53.174;6.730;2023-05-25T08:57:41;13.43;;;3.63;;
56541;SDS011;42438;53.174;6.730;2023-05-25T09:00:08;16.58;;;4.50;;
56541;SDS011;42438;53.174;6.730;2023-05-25T09:02:49;14.82;;;4.05;;
56541;SDS011;42438;53.174;6.730;2023-05-25T09:05:27;13.77;;;3.65;;
56541;SDS011;42438;53.174;6.730;2023-05-25T09:07:58;14.35;;;3.88;;
56541;SDS011;42438;53.174;6.730;2023-05-25T09:10:29;15.27;;;3.60;;
56541;SDS011;42438;53.174;6.730;2023-05-25T09:13:05;17.98;;;3.45;;
56541;SDS011;42438;53.174;6.730;2023-05-25T09:15:36;15.70;;;3.42;;
56541;SDS011;42438;53.174;6.730;2023-05-25T09:18:07;15.70;;;3.90;;
56541;SDS011;42438;53.174;6.730;2023-05-25T09:20:37;19.10;;;3.78;;
56541;SDS011;42438;53.174;6.730;2023-05-25T09:23:08;14.85;;;4.55;;
56541;SDS011;42438;53.174;6.730;2023-05-25T09:25:39;13.38;;;3.90;;
56541;SDS011;42438;53.174;6.730;2023-05-25T09:28:10;17.33;;;4.38;;
56541;SDS011;42438;53.174;6.730;2023-05-25T09:30:41;14.57;;;3.70;;
56541;SDS011;42438;53.174;6.730;2023-05-25T09:33:12;19.77;;;4.43;;
56541;SDS011;42438;53.174;6.730;2023-05-25T09:35:46;17.25;;;3.90;;
56541;SDS011;42438;53.174;6.730;2023-05-25T09:38:17;15.63;;;3.70;;
56541;SDS011;42438;53.174;6.730;2023-05-25T09:40:48;19.95;;;4.35;;
56541;SDS011;42438;53.174;6.730;2023-05-25T09:43:20;14.80;;;3.83;;
56541;SDS011;42438;53.174;6.730;2023-05-25T09:45:51;13.98;;;4.63;;
56541;SDS011;42438;53.174;6.730;2023-05-25T09:48:22;16.85;;;4.15;;
56541;SDS011;42438;53.174;6.730;2023-05-25T09:50:53;16.98;;;3.88;;
56541;SDS011;42438;53.174;6.730;2023-05-25T09:53:25;21.30;;;3.92;;
56541;SDS011;42438;53.174;6.730;2023-05-25T09:55:56;15.23;;;3.45;;
56541;SDS011;42438;53.174;6.730;2023-05-25T09:58:26;17.27;;;3.63;;
56541;SDS011;42438;53.174;6.730;2023-05-25T10:00:57;15.27;;;3.92;;
56541;SDS011;42438;53.174;6.730;2023-05-25T10:03:28;12.90;;;3.88;;
56541;SDS011;42438;53.174;6.730;2023-05-25T10:05:59;14.88;;;4.18;;
56541;SDS011;42438;53.174;6.730;2023-05-25T10:08:30;21.38;;;4.97;;
56541;SDS011;42438;53.174;6.730;2023-05-25T10:11:02;15.35;;;4.40;;
56541;SDS011;42438;53.174;6.730;2023-05-25T10:13:34;17.98;;;4.68;;
56541;SDS011;42438;53.174;6.730;2023-05-25T10:16:07;15.48;;;4.43;;
56541;SDS011;42438;53.174;6.730;2023-05-25T10:18:43;14.90;;;4.15;;
56541;SDS011;42438;53.174;6.730;2023-05-25T10:21:17;16.58;;;4.10;;
56541;SDS011;42438;53.174;6.730;2023-05-25T10:23:50;11.80;;;4.30;;
56541;SDS011;42438;53.174;6.730;2023-05-25T10:26:24;12.15;;;3.55;;
56541;SDS011;42438;53.174;6.730;2023-05-25T10:28:57;19.17;;;4.20;;
56541;SDS011;42438;53.174;6.730;2023-05-25T10:31:33;14.68;;;4.45;;
56541;SDS011;42438;53.174;6.730;2023-05-25T10:34:06;12.60;;;3.65;;
56541;SDS011;42438;53.174;6.730;2023-05-25T10:36:39;15.32;;;3.95;;
56541;SDS011;42438;53.174;6.730;2023-05-25T10:39:10;13.88;;;4.70;;
56541;SDS011;42438;53.174;6.730;2023-05-25T10:41:42;15.90;;;4.60;;
56541;SDS011;42438;53.174;6.730;2023-05-25T10:44:13;13.65;;;4.10;;
56541;SDS011;42438;53.174;6.730;2023-05-25T10:46:44;17.70;;;4.25;;
56541;SDS011;42438;53.174;6.730;2023-05-25T10:49:29;17.92;;;5.43;;
56541;SDS011;42438;53.174;6.730;2023-05-25T10:52:02;15.77;;;5.00;;
56541;SDS011;42438;53.174;6.730;2023-05-25T10:54:33;15.52;;;3.83;;
56541;SDS011;42438;53.174;6.730;2023-05-25T10:57:12;18.25;;;4.50;;
56541;SDS011;42438;53.174;6.730;2023-05-25T10:59:49;14.73;;;4.20;;
56541;SDS011;42438;53.174;6.730;2023-05-25T11:02:28;16.17;;;4.57;;
56541;SDS011;42438;53.174;6.730;2023-05-25T11:08:08;22.38;;;5.07;;
56541;SDS011;42438;53.174;6.730;2023-05-25T11:16:06;21.08;;;5.35;;
56541;SDS011;42438;53.174;6.730;2023-05-25T11:18:45;22.35;;;4.82;;
56541;SDS011;42438;53.174;6.730;2023-05-25T11:24:01;21.23;;;5.80;;
56541;SDS011;42438;53.174;6.730;2023-05-25T11:26:33;18.63;;;4.70;;
56541;SDS011;42438;53.174;6.730;2023-05-25T11:29:24;15.23;;;5.07;;
56541;SDS011;42438;53.174;6.730;2023-05-25T11:32:00;20.45;;;4.60;;
56541;SDS011;42438;53.174;6.730;2023-05-25T11:34:31;20.85;;;4.90;;
56541;SDS011;42438;53.174;6.730;2023-05-25T11:37:02;22.63;;;4.70;;
56541;SDS011;42438;53.174;6.730;2023-05-25T11:39:33;16.58;;;4.43;;
56541;SDS011;42438;53.174;6.730;2023-05-25T11:42:04;12.48;;;4.18;;
56541;SDS011;42438;53.174;6.730;2023-05-25T11:44:40;17.10;;;4.22;;
56541;SDS011;42438;53.174;6.730;2023-05-25T11:47:12;15.35;;;4.40;;
56541;SDS011;42438;53.174;6.730;2023-05-25T11:49:44;14.95;;;4.05;;
56541;SDS011;42438;53.174;6.730;2023-05-25T11:54:47;15.07;;;3.83;;
56541;SDS011;42438;53.174;6.730;2023-05-25T11:57:22;14.63;;;4.80;;
56541;SDS011;42438;53.174;6.730;2023-05-25T11:59:56;12.40;;;3.92;;
56541;SDS011;42438;53.174;6.730;2023-05-25T12:02:35;13.48;;;4.05;;
56541;SDS011;42438;53.174;6.730;2023-05-25T12:05:07;18.50;;;4.30;;
56541;SDS011;42438;53.174;6.730;2023-05-25T12:07:41;13.60;;;3.90;;
56541;SDS011;42438;53.174;6.730;2023-05-25T12:10:14;17.88;;;4.30;;
56541;SDS011;42438;53.174;6.730;2023-05-25T12:12:46;16.40;;;4.15;;
56541;SDS011;42438;53.174;6.730;2023-05-25T12:15:21;13.73;;;3.40;;
56541;SDS011;42438;53.174;6.730;2023-05-25T12:17:53;18.30;;;4.47;;
56541;SDS011;42438;53.174;6.730;2023-05-25T12:20:24;14.75;;;3.92;;
56541;SDS011;42438;53.174;6.730;2023-05-25T12:22:55;14.30;;;3.75;;
56541;SDS011;42438;53.174;6.730;2023-05-25T12:25:27;14.25;;;4.50;;
56541;SDS011;42438;53.174;6.730;2023-05-25T12:30:43;16.80;;;4.13;;
56541;SDS011;42438;53.174;6.730;2023-05-25T12:33:14;15.82;;;4.38;;
56541;SDS011;42438;53.174;6.730;2023-05-25T12:35:46;15.50;;;5.22;;
56541;SDS011;42438;53.174;6.730;2023-05-25T12:38:18;18.48;;;5.00;;
56541;SDS011;42438;53.174;6.730;2023-05-25T12:41:05;17.13;;;4.13;;
56541;SDS011;42438;53.174;6.730;2023-05-25T12:43:40;19.92;;;4.53;;
56541;SDS011;42438;53.174;6.730;2023-05-25T12:46:22;16.98;;;4.28;;
56541;SDS011;42438;53.174;6.730;2023-05-25T12:48:53;17.63;;;4.18;;
56541;SDS011;42438;53.174;6.730;2023-05-25T12:51:25;14.05;;;4.32;;
56541;SDS011;42438;53.174;6.730;2023-05-25T12:54:06;17.40;;;4.78;;
56541;SDS011;42438;53.174;6.730;2023-05-25T12:56:52;19.17;;;4.68;;
56541;SDS011;42438;53.174;6.730;2023-05-25T12:59:26;18.63;;;4.82;;
56541;SDS011;42438;53.174;6.730;2023-05-25T13:01:56;14.88;;;4.30;;
56541;SDS011;42438;53.174;6.730;2023-05-25T13:04:27;19.85;;;4.93;;
56541;SDS011;42438;53.174;6.730;2023-05-25T13:06:58;17.13;;;4.78;;
56541;SDS011;42438;53.174;6.730;2023-05-25T13:09:29;18.67;;;4.60;;
56541;SDS011;42438;53.174;6.730;2023-05-25T13:12:01;18.13;;;4.47;;
56541;SDS011;42438;53.174;6.730;2023-05-25T13:14:32;16.10;;;4.43;;
56541;SDS011;42438;53.174;6.730;2023-05-25T13:17:03;18.27;;;4.80;;
56541;SDS011;42438;53.174;6.730;2023-05-25T13:19:33;15.18;;;4.43;;
56541;SDS011;42438;53.174;6.730;2023-05-25T13:22:05;15.60;;;4.50;;
56541;SDS011;42438;53.174;6.730;2023-05-25T13:24:36;18.52;;;4.97;;
56541;SDS011;42438;53.174;6.730;2023-05-25T13:27:07;14.63;;;4.28;;
56541;SDS011;42438;53.174;6.730;2023-05-25T13:29:37;17.52;;;4.18;;
56541;SDS011;42438;53.174;6.730;2023-05-25T13:32:08;18.85;;;4.55;;
56541;SDS011;42438;53.174;6.730;2023-05-25T13:34:39;19.52;;;4.78;;
56541;SDS011;42438;53.174;6.730;2023-05-25T13:37:10;20.98;;;5.30;;
56541;SDS011;42438;53.174;6.730;2023-05-25T13:39:40;23.48;;;8.52;;
56541;SDS011;42438;53.174;6.730;2023-05-25T13:42:11;20.48;;;5.53;;
56541;SDS011;42438;53.174;6.730;2023-05-25T13:44:42;16.13;;;4.90;;
56541;SDS011;42438;53.174;6.730;2023-05-25T13:47:12;15.85;;;4.28;;
56541;SDS011;42438;53.174;6.730;2023-05-25T13:49:43;17.73;;;4.93;;
56541;SDS011;42438;53.174;6.730;2023-05-25T13:52:14;17.83;;;4.63;;
56541;SDS011;42438;53.174;6.730;2023-05-25T13:54:44;16.95;;;5.07;;
56541;SDS011;42438;53.174;6.730;2023-05-25T13:57:15;20.83;;;5.65;;
56541;SDS011;42438;53.174;6.730;2023-05-25T13:59:46;22.35;;;5.40;;
56541;SDS011;42438;53.174;6.730;2023-05-25T14:02:16;17.48;;;4.35;;
56541;SDS011;42438;53.174;6.730;2023-05-25T14:04:47;14.63;;;4.78;;
56541;SDS011;42438;53.174;6.730;2023-05-25T14:07:18;19.17;;;5.07;;
56541;SDS011;42438;53.174;6.730;2023-05-25T14:09:48;17.40;;;3.25;;
56541;SDS011;42438;53.174;6.730;2023-05-25T14:12:19;17.48;;;5.18;;
56541;SDS011;42438;53.174;6.730;2023-05-25T14:14:50;17.48;;;5.03;;
56541;SDS011;42438;53.174;6.730;2023-05-25T14:17:20;20.90;;;5.82;;
56541;SDS011;42438;53.174;6.730;2023-05-25T14:19:51;12.52;;;3.97;;
56541;SDS011;42438;53.174;6.730;2023-05-25T14:22:21;16.23;;;4.43;;
56541;SDS011;42438;53.174;6.730;2023-05-25T14:24:52;16.20;;;5.28;;
56541;SDS011;42438;53.174;6.730;2023-05-25T14:27:23;19.55;;;6.55;;
56541;SDS011;42438;53.174;6.730;2023-05-25T14:29:53;16.60;;;4.50;;
56541;SDS011;42438;53.174;6.730;2023-05-25T14:32:24;18.10;;;5.30;;
56541;SDS011;42438;53.174;6.730;2023-05-25T14:34:55;18.02;;;4.30;;
56541;SDS011;42438;53.174;6.730;2023-05-25T14:37:25;14.32;;;4.82;;
56541;SDS011;42438;53.174;6.730;2023-05-25T14:39:56;16.25;;;4.25;;
56541;SDS011;42438;53.174;6.730;2023-05-25T14:42:27;19.17;;;3.95;;
56541;SDS011;42438;53.174;6.730;2023-05-25T14:44:59;16.17;;;4.43;;
56541;SDS011;42438;53.174;6.730;2023-05-25T14:47:29;21.23;;;4.93;;
56541;SDS011;42438;53.174;6.730;2023-05-25T14:50:00;17.13;;;4.97;;
56541;SDS011;42438;53.174;6.730;2023-05-25T14:52:31;17.05;;;4.47;;
56541;SDS011;42438;53.174;6.730;2023-05-25T14:55:01;18.00;;;4.93;;
56541;SDS011;42438;53.174;6.730;2023-05-25T14:57:32;18.30;;;4.45;;
56541;SDS011;42438;53.174;6.730;2023-05-25T15:00:03;19.25;;;4.15;;
56541;SDS011;42438;53.174;6.730;2023-05-25T15:02:34;17.02;;;4.57;;
56541;SDS011;42438;53.174;6.730;2023-05-25T15:05:05;15.07;;;4.40;;
56541;SDS011;42438;53.174;6.730;2023-05-25T15:07:36;15.90;;;5.35;;
56541;SDS011;42438;53.174;6.730;2023-05-25T15:10:06;13.73;;;3.83;;
56541;SDS011;42438;53.174;6.730;2023-05-25T15:12:37;13.77;;;4.05;;
56541;SDS011;42438;53.174;6.730;2023-05-25T15:15:08;19.20;;;4.80;;
56541;SDS011;42438;53.174;6.730;2023-05-25T15:17:40;15.77;;;5.28;;
56541;SDS011;42438;53.174;6.730;2023-05-25T15:20:10;14.85;;;3.97;;
56541;SDS011;42438;53.174;6.730;2023-05-25T15:22:41;16.45;;;4.43;;
56541;SDS011;42438;53.174;6.730;2023-05-25T15:25:12;16.92;;;5.07;;
56541;SDS011;42438;53.174;6.730;2023-05-25T15:27:42;19.70;;;4.95;;
56541;SDS011;42438;53.174;6.730;2023-05-25T15:30:13;16.95;;;4.47;;